sensor_id;sensor_type;location;lat;lon;timestamp;temperature;humidity
25556;DHT22;13447;57.174;-2.112;2023-03-21T00:38:56;7.70;1.00
25556;DHT22;13447;57.174;-2.112;2023-03-21T00:41:23;7.70;1.00
25556;DHT22;13447;57.174;-2.112;2023-03-21T00:44:08;7.70;1.00
25556;DHT22;13447;57.174;-2.112;2023-03-21T00:46:35;7.70;1.00
25556;DHT22;13447;57.174;-2.112;2023-03-21T00:49:17;7.70;1.00
25556;DHT22;13447;57.174;-2.112;2023-03-21T00:51:46;7.70;1.00
25556;DHT22;13447;57.174;-2.112;2023-03-21T00:54:17;7.70;1.00
25556;DHT22;13447;57.174;-2.112;2023-03-21T00:56:44;7.70;1.00
25556;DHT22;13447;57.174;-2.112;2023-03-21T00:59:10;7.80;1.00
25556;DHT22;13447;57.174;-2.112;2023-03-21T01:01:37;7.80;1.00
25556;DHT22;13447;57.174;-2.112;2023-03-21T01:04:04;7.80;1.00
25556;DHT22;13447;57.174;-2.112;2023-03-21T01:06:34;7.80;1.00
25556;DHT22;13447;57.174;-2.112;2023-03-21T01:09:05;7.80;1.00
25556;DHT22;13447;57.174;-2.112;2023-03-21T01:11:33;7.80;1.00
25556;DHT22;13447;57.174;-2.112;2023-03-21T01:14:00;7.80;1.00
25556;DHT22;13447;57.174;-2.112;2023-03-21T01:16:46;7.80;1.00
25556;DHT22;13447;57.174;-2.112;2023-03-21T01:19:14;7.80;1.00
25556;DHT22;13447;57.174;-2.112;2023-03-21T01:21:51;7.80;1.00
25556;DHT22;13447;57.174;-2.112;2023-03-21T01:24:18;7.90;1.00
25556;DHT22;13447;57.174;-2.112;2023-03-21T01:26:45;7.90;1.00
25556;DHT22;13447;57.174;-2.112;2023-03-21T01:29:12;8.00;1.00
25556;DHT22;13447;57.174;-2.112;2023-03-21T01:31:39;8.00;1.00
25556;DHT22;13447;57.174;-2.112;2023-03-21T01:34:06;8.00;1.00
25556;DHT22;13447;57.174;-2.112;2023-03-21T01:36:33;8.10;1.00
25556;DHT22;13447;57.174;-2.112;2023-03-21T01:39:00;8.00;1.00
25556;DHT22;13447;57.174;-2.112;2023-03-21T01:44:06;8.00;1.00
25556;DHT22;13447;57.174;-2.112;2023-03-21T01:46:34;8.00;1.00
25556;DHT22;13447;57.174;-2.112;2023-03-21T01:49:36;8.00;1.00
25556;DHT22;13447;57.174;-2.112;2023-03-21T01:52:06;8.00;1.00
25556;DHT22;13447;57.174;-2.112;2023-03-21T01:54:40;8.00;1.00
25556;DHT22;13447;57.174;-2.112;2023-03-21T01:57:10;8.10;1.00
25556;DHT22;13447;57.174;-2.112;2023-03-21T02:02:10;8.10;1.00
25556;DHT22;13447;57.174;-2.112;2023-03-21T02:04:39;8.10;1.00
25556;DHT22;13447;57.174;-2.112;2023-03-21T08:08:47;9.50;1.00
25556;DHT22;13447;57.174;-2.112;2023-03-21T08:11:14;9.50;1.00
25556;DHT22;13447;57.174;-2.112;2023-03-21T08:13:40;9.60;1.00
25556;DHT22;13447;57.174;-2.112;2023-03-21T08:16:07;9.60;1.00
25556;DHT22;13447;57.174;-2.112;2023-03-21T08:18:34;9.60;1.00
25556;DHT22;13447;57.174;-2.112;2023-03-21T08:21:01;9.60;1.00
25556;DHT22;13447;57.174;-2.112;2023-03-21T08:23:28;9.70;1.00
25556;DHT22;13447;57.174;-2.112;2023-03-21T08:28:22;9.90;1.00
25556;DHT22;13447;57.174;-2.112;2023-03-21T08:30:49;10.00;1.00
25556;DHT22;13447;57.174;-2.112;2023-03-21T08:33:16;10.10;1.00
25556;DHT22;13447;57.174;-2.112;2023-03-21T08:35:44;10.20;1.00
25556;DHT22;13447;57.174;-2.112;2023-03-21T08:38:12;10.20;1.00
25556;DHT22;13447;57.174;-2.112;2023-03-21T08:40:39;10.30;1.00
25556;DHT22;13447;57.174;-2.112;2023-03-21T08:43:07;10.50;1.00
25556;DHT22;13447;57.174;-2.112;2023-03-21T08:45:34;10.50;1.00
25556;DHT22;13447;57.174;-2.112;2023-03-21T08:48:01;10.60;1.00
25556;DHT22;13447;57.174;-2.112;2023-03-21T08:50:27;10.60;1.00
25556;DHT22;13447;57.174;-2.112;2023-03-21T08:52:57;10.60;1.00
25556;DHT22;13447;57.174;-2.112;2023-03-21T08:55:24;10.50;1.00
25556;DHT22;13447;57.174;-2.112;2023-03-21T08:57:51;10.50;1.00
25556;DHT22;13447;57.174;-2.112;2023-03-21T09:00:18;10.50;1.00
25556;DHT22;13447;57.174;-2.112;2023-03-21T09:02:47;10.50;1.00
25556;DHT22;13447;57.174;-2.112;2023-03-21T09:05:14;10.50;1.00
25556;DHT22;13447;57.174;-2.112;2023-03-21T09:07:42;10.60;1.00
25556;DHT22;13447;57.174;-2.112;2023-03-21T09:10:11;10.90;1.00
25556;DHT22;13447;57.174;-2.112;2023-03-21T09:12:52;11.40;1.00
25556;DHT22;13447;57.174;-2.112;2023-03-21T09:15:20;12.00;1.00
25556;DHT22;13447;57.174;-2.112;2023-03-21T09:17:50;12.30;1.00
25556;DHT22;13447;57.174;-2.112;2023-03-21T09:20:19;12.80;99.90
25556;DHT22;13447;57.174;-2.112;2023-03-21T09:22:52;12.90;99.90
25556;DHT22;13447;57.174;-2.112;2023-03-21T09:25:19;13.00;99.90
25556;DHT22;13447;57.174;-2.112;2023-03-21T09:27:47;13.30;99.90
25556;DHT22;13447;57.174;-2.112;2023-03-21T09:30:15;13.60;99.90
25556;DHT22;13447;57.174;-2.112;2023-03-21T09:32:42;13.80;99.90
25556;DHT22;13447;57.174;-2.112;2023-03-21T09:35:13;13.70;99.90
25556;DHT22;13447;57.174;-2.112;2023-03-21T09:37:41;13.70;99.90
25556;DHT22;13447;57.174;-2.112;2023-03-21T09:43:04;13.80;99.90
25556;DHT22;13447;57.174;-2.112;2023-03-21T09:45:39;13.70;99.90
25556;DHT22;13447;57.174;-2.112;2023-03-21T09:48:26;13.80;99.90
25556;DHT22;13447;57.174;-2.112;2023-03-21T09:50:55;14.10;99.90
25556;DHT22;13447;57.174;-2.112;2023-03-21T09:53:28;14.70;99.90
25556;DHT22;13447;57.174;-2.112;2023-03-21T09:55:58;15.20;99.90
25556;DHT22;13447;57.174;-2.112;2023-03-21T09:58:49;15.10;99.90
25556;DHT22;13447;57.174;-2.112;2023-03-21T10:01:19;15.40;72.40
25556;DHT22;13447;57.174;-2.112;2023-03-21T10:04:01;15.70;99.90
25556;DHT22;13447;57.174;-2.112;2023-03-21T10:06:30;16.20;48.30
25556;DHT22;13447;57.174;-2.112;2023-03-21T10:09:02;15.70;46.30
25556;DHT22;13447;57.174;-2.112;2023-03-21T10:11:55;15.80;23.90
25556;DHT22;13447;57.174;-2.112;2023-03-21T10:14:22;16.30;31.50
25556;DHT22;13447;57.174;-2.112;2023-03-21T10:16:52;16.40;1.00
25556;DHT22;13447;57.174;-2.112;2023-03-21T10:19:23;16.10;1.00
25556;DHT22;13447;57.174;-2.112;2023-03-21T10:21:50;16.10;1.00
25556;DHT22;13447;57.174;-2.112;2023-03-21T10:24:27;16.00;1.00
25556;DHT22;13447;57.174;-2.112;2023-03-21T10:26:55;15.70;1.00
25556;DHT22;13447;57.174;-2.112;2023-03-21T10:29:23;15.20;22.20
25556;DHT22;13447;57.174;-2.112;2023-03-21T10:31:50;15.40;98.10
25556;DHT22;13447;57.174;-2.112;2023-03-21T10:36:52;15.10;99.90
25556;DHT22;13447;57.174;-2.112;2023-03-21T10:41:55;15.40;48.10
25556;DHT22;13447;57.174;-2.112;2023-03-21T10:44:21;15.10;97.60
25556;DHT22;13447;57.174;-2.112;2023-03-21T10:46:55;14.50;93.60
25556;DHT22;13447;57.174;-2.112;2023-03-21T10:49:23;14.20;99.90
25556;DHT22;13447;57.174;-2.112;2023-03-21T10:51:55;14.20;99.90
25556;DHT22;13447;57.174;-2.112;2023-03-21T10:54:33;14.10;99.90
25556;DHT22;13447;57.174;-2.112;2023-03-21T10:57:08;13.90;99.90
25556;DHT22;13447;57.174;-2.112;2023-03-21T10:59:36;13.50;99.90
25556;DHT22;13447;57.174;-2.112;2023-03-21T11:02:04;13.40;99.90
25556;DHT22;13447;57.174;-2.112;2023-03-21T11:04:31;13.30;99.90
25556;DHT22;13447;57.174;-2.112;2023-03-21T11:07:02;13.80;99.90
25556;DHT22;13447;57.174;-2.112;2023-03-21T11:12:29;14.80;99.90
25556;DHT22;13447;57.174;-2.112;2023-03-21T11:14:58;15.60;99.90
25556;DHT22;13447;57.174;-2.112;2023-03-21T11:17:40;15.80;1.00
25556;DHT22;13447;57.174;-2.112;2023-03-21T11:20:07;15.10;99.90
25556;DHT22;13447;57.174;-2.112;2023-03-21T11:22:38;15.20;2.10
25556;DHT22;13447;57.174;-2.112;2023-03-21T11:25:07;15.40;1.00
25556;DHT22;13447;57.174;-2.112;2023-03-21T11:27:34;15.10;40.20
25556;DHT22;13447;57.174;-2.112;2023-03-21T11:30:02;14.80;35.70
25556;DHT22;13447;57.174;-2.112;2023-03-21T11:32:34;14.40;99.90
25556;DHT22;13447;57.174;-2.112;2023-03-21T11:37:32;15.30;99.90
25556;DHT22;13447;57.174;-2.112;2023-03-21T11:42:42;16.10;25.20
25556;DHT22;13447;57.174;-2.112;2023-03-21T11:45:10;16.00;1.00
25556;DHT22;13447;57.174;-2.112;2023-03-21T11:47:38;16.10;1.00
25556;DHT22;13447;57.174;-2.112;2023-03-21T11:50:15;16.70;14.70
25556;DHT22;13447;57.174;-2.112;2023-03-21T11:52:46;16.80;1.00
25556;DHT22;13447;57.174;-2.112;2023-03-21T12:00:28;15.40;14.10
25556;DHT22;13447;57.174;-2.112;2023-03-21T12:05:34;14.70;99.90
25556;DHT22;13447;57.174;-2.112;2023-03-21T12:11:16;14.80;99.90
25556;DHT22;13447;57.174;-2.112;2023-03-21T12:31:32;16.60;1.00
25556;DHT22;13447;57.174;-2.112;2023-03-21T12:44:18;17.90;1.00
25556;DHT22;13447;57.174;-2.112;2023-03-21T12:46:48;17.10;1.00
25556;DHT22;13447;57.174;-2.112;2023-03-21T12:51:50;17.20;1.00
25556;DHT22;13447;57.174;-2.112;2023-03-21T12:54:27;17.90;1.00
25556;DHT22;13447;57.174;-2.112;2023-03-21T13:01:49;17.40;1.00
25556;DHT22;13447;57.174;-2.112;2023-03-21T13:06:48;16.90;1.00
25556;DHT22;13447;57.174;-2.112;2023-03-21T13:09:19;17.10;1.00
25556;DHT22;13447;57.174;-2.112;2023-03-21T13:12:02;17.60;1.00
25556;DHT22;13447;57.174;-2.112;2023-03-21T13:14:35;17.70;1.00
25556;DHT22;13447;57.174;-2.112;2023-03-21T13:17:05;17.20;1.00
25556;DHT22;13447;57.174;-2.112;2023-03-21T13:19:41;16.40;1.00
25556;DHT22;13447;57.174;-2.112;2023-03-21T13:22:19;15.60;1.00
25556;DHT22;13447;57.174;-2.112;2023-03-21T13:24:48;16.20;1.00
25556;DHT22;13447;57.174;-2.112;2023-03-21T13:27:32;16.30;1.00
25556;DHT22;13447;57.174;-2.112;2023-03-21T13:35:43;17.00;1.00
25556;DHT22;13447;57.174;-2.112;2023-03-21T13:37:57;16.90;1.00
25556;DHT22;13447;57.174;-2.112;2023-03-21T13:40:25;16.50;1.00
25556;DHT22;13447;57.174;-2.112;2023-03-21T13:42:54;15.70;1.00
25556;DHT22;13447;57.174;-2.112;2023-03-21T13:45:26;15.70;1.00
25556;DHT22;13447;57.174;-2.112;2023-03-21T13:48:01;15.60;1.00
25556;DHT22;13447;57.174;-2.112;2023-03-21T13:50:32;15.20;1.00
25556;DHT22;13447;57.174;-2.112;2023-03-21T13:55:27;14.70;1.00
25556;DHT22;13447;57.174;-2.112;2023-03-21T13:57:55;14.10;7.00
25556;DHT22;13447;57.174;-2.112;2023-03-21T14:00:26;13.90;42.50
25556;DHT22;13447;57.174;-2.112;2023-03-21T14:02:59;13.90;89.80
25556;DHT22;13447;57.174;-2.112;2023-03-21T14:05:27;13.70;67.30
25556;DHT22;13447;57.174;-2.112;2023-03-21T14:07:55;13.60;99.90
25556;DHT22;13447;57.174;-2.112;2023-03-21T14:10:36;13.50;99.90
25556;DHT22;13447;57.174;-2.112;2023-03-21T14:13:04;13.50;99.90
25556;DHT22;13447;57.174;-2.112;2023-03-21T14:15:39;13.50;99.90
25556;DHT22;13447;57.174;-2.112;2023-03-21T14:18:21;13.50;99.90
25556;DHT22;13447;57.174;-2.112;2023-03-21T14:26:29;13.40;99.90
25556;DHT22;13447;57.174;-2.112;2023-03-21T14:28:57;13.30;99.90
25556;DHT22;13447;57.174;-2.112;2023-03-21T14:31:24;13.20;99.90
25556;DHT22;13447;57.174;-2.112;2023-03-21T14:33:55;13.10;99.90
25556;DHT22;13447;57.174;-2.112;2023-03-21T14:36:28;13.20;99.90
25556;DHT22;13447;57.174;-2.112;2023-03-21T14:38:56;13.10;99.90
25556;DHT22;13447;57.174;-2.112;2023-03-21T14:41:25;13.10;99.90
25556;DHT22;13447;57.174;-2.112;2023-03-21T14:44:13;13.00;99.90
25556;DHT22;13447;57.174;-2.112;2023-03-21T14:46:40;13.00;99.90
25556;DHT22;13447;57.174;-2.112;2023-03-21T14:51:37;13.10;99.90
25556;DHT22;13447;57.174;-2.112;2023-03-21T14:54:04;13.20;99.90
25556;DHT22;13447;57.174;-2.112;2023-03-21T14:56:31;13.20;99.90
25556;DHT22;13447;57.174;-2.112;2023-03-21T14:58:59;13.10;99.90
25556;DHT22;13447;57.174;-2.112;2023-03-21T15:01:28;13.00;99.90
25556;DHT22;13447;57.174;-2.112;2023-03-21T15:03:55;13.10;99.90
25556;DHT22;13447;57.174;-2.112;2023-03-21T15:06:25;12.90;99.90
25556;DHT22;13447;57.174;-2.112;2023-03-21T15:08:56;12.80;99.90
25556;DHT22;13447;57.174;-2.112;2023-03-21T15:11:30;12.90;99.90
25556;DHT22;13447;57.174;-2.112;2023-03-21T15:13:58;12.90;99.90
25556;DHT22;13447;57.174;-2.112;2023-03-21T15:16:25;12.90;99.90
25556;DHT22;13447;57.174;-2.112;2023-03-21T15:18:52;12.80;99.90
25556;DHT22;13447;57.174;-2.112;2023-03-21T15:21:23;12.80;99.90
25556;DHT22;13447;57.174;-2.112;2023-03-21T15:23:54;12.80;99.90
25556;DHT22;13447;57.174;-2.112;2023-03-21T15:26:23;12.90;99.90
25556;DHT22;13447;57.174;-2.112;2023-03-21T15:28:55;12.80;99.90
25556;DHT22;13447;57.174;-2.112;2023-03-21T15:31:23;12.90;99.90
25556;DHT22;13447;57.174;-2.112;2023-03-21T15:33:51;12.80;99.90
25556;DHT22;13447;57.174;-2.112;2023-03-21T15:36:24;12.80;99.90
25556;DHT22;13447;57.174;-2.112;2023-03-21T15:38:51;12.80;99.90
25556;DHT22;13447;57.174;-2.112;2023-03-21T15:43:47;12.70;99.90
25556;DHT22;13447;57.174;-2.112;2023-03-21T15:46:15;12.70;99.90
25556;DHT22;13447;57.174;-2.112;2023-03-21T15:48:42;12.70;99.90
25556;DHT22;13447;57.174;-2.112;2023-03-21T15:51:21;12.70;99.90
25556;DHT22;13447;57.174;-2.112;2023-03-21T15:53:50;12.70;99.90
25556;DHT22;13447;57.174;-2.112;2023-03-21T15:56:17;12.60;99.90
25556;DHT22;13447;57.174;-2.112;2023-03-21T15:58:47;12.70;99.90
25556;DHT22;13447;57.174;-2.112;2023-03-21T16:01:18;12.60;99.90
25556;DHT22;13447;57.174;-2.112;2023-03-21T16:03:47;12.70;99.90
25556;DHT22;13447;57.174;-2.112;2023-03-21T16:06:16;12.70;99.90
25556;DHT22;13447;57.174;-2.112;2023-03-21T16:13:44;12.90;99.90
25556;DHT22;13447;57.174;-2.112;2023-03-21T16:16:19;12.90;99.90
25556;DHT22;13447;57.174;-2.112;2023-03-21T16:18:46;12.90;99.90
25556;DHT22;13447;57.174;-2.112;2023-03-21T16:21:14;12.90;99.90
25556;DHT22;13447;57.174;-2.112;2023-03-21T16:23:41;12.90;99.90
25556;DHT22;13447;57.174;-2.112;2023-03-21T16:26:12;12.80;99.90
25556;DHT22;13447;57.174;-2.112;2023-03-21T16:28:39;12.70;99.90
25556;DHT22;13447;57.174;-2.112;2023-03-21T16:31:08;12.70;99.90
25556;DHT22;13447;57.174;-2.112;2023-03-21T16:33:37;12.60;99.90
25556;DHT22;13447;57.174;-2.112;2023-03-21T16:36:04;12.60;99.90
25556;DHT22;13447;57.174;-2.112;2023-03-21T16:38:33;12.60;99.90
25556;DHT22;13447;57.174;-2.112;2023-03-21T16:40:59;12.60;99.90
25556;DHT22;13447;57.174;-2.112;2023-03-21T16:43:29;12.60;99.90
25556;DHT22;13447;57.174;-2.112;2023-03-21T16:45:56;12.60;99.90
25556;DHT22;13447;57.174;-2.112;2023-03-21T16:48:23;12.50;99.90
25556;DHT22;13447;57.174;-2.112;2023-03-21T16:50:50;12.40;99.90
25556;DHT22;13447;57.174;-2.112;2023-03-21T16:53:17;12.40;99.90
25556;DHT22;13447;57.174;-2.112;2023-03-21T16:55:44;12.40;99.90
25556;DHT22;13447;57.174;-2.112;2023-03-21T16:58:13;12.30;99.90
25556;DHT22;13447;57.174;-2.112;2023-03-21T17:00:41;12.30;99.90
25556;DHT22;13447;57.174;-2.112;2023-03-21T17:03:13;12.10;99.90
25556;DHT22;13447;57.174;-2.112;2023-03-21T17:05:43;12.00;99.90
25556;DHT22;13447;57.174;-2.112;2023-03-21T17:08:15;11.90;99.90
25556;DHT22;13447;57.174;-2.112;2023-03-21T17:10:42;11.90;99.90
25556;DHT22;13447;57.174;-2.112;2023-03-21T17:13:09;11.70;99.90
25556;DHT22;13447;57.174;-2.112;2023-03-21T17:15:36;11.80;99.90
25556;DHT22;13447;57.174;-2.112;2023-03-21T17:18:04;11.80;99.90
25556;DHT22;13447;57.174;-2.112;2023-03-21T17:20:32;11.80;99.90
25556;DHT22;13447;57.174;-2.112;2023-03-21T17:23:00;11.90;99.90
25556;DHT22;13447;57.174;-2.112;2023-03-21T17:25:27;11.70;99.90
25556;DHT22;13447;57.174;-2.112;2023-03-21T17:27:54;11.70;99.90
25556;DHT22;13447;57.174;-2.112;2023-03-21T17:30:23;11.70;99.90
25556;DHT22;13447;57.174;-2.112;2023-03-21T17:32:51;11.60;99.90
25556;DHT22;13447;57.174;-2.112;2023-03-21T17:35:19;11.60;99.90
25556;DHT22;13447;57.174;-2.112;2023-03-21T17:37:46;11.60;99.90
25556;DHT22;13447;57.174;-2.112;2023-03-21T17:40:21;11.50;99.90
25556;DHT22;13447;57.174;-2.112;2023-03-21T17:42:48;11.40;99.90
25556;DHT22;13447;57.174;-2.112;2023-03-21T17:45:15;11.40;99.90
25556;DHT22;13447;57.174;-2.112;2023-03-21T17:47:42;11.30;99.90
25556;DHT22;13447;57.174;-2.112;2023-03-21T17:50:14;11.30;99.90
25556;DHT22;13447;57.174;-2.112;2023-03-21T17:52:41;11.30;99.90
25556;DHT22;13447;57.174;-2.112;2023-03-21T17:55:08;11.30;99.90
25556;DHT22;13447;57.174;-2.112;2023-03-21T17:57:35;11.30;99.90
25556;DHT22;13447;57.174;-2.112;2023-03-21T18:00:04;11.30;99.90
25556;DHT22;13447;57.174;-2.112;2023-03-21T18:02:37;11.30;99.90
25556;DHT22;13447;57.174;-2.112;2023-03-21T18:05:04;11.30;99.90
25556;DHT22;13447;57.174;-2.112;2023-03-21T18:07:31;11.30;99.90
25556;DHT22;13447;57.174;-2.112;2023-03-21T18:10:22;11.20;99.90
25556;DHT22;13447;57.174;-2.112;2023-03-21T18:12:49;11.20;99.90
25556;DHT22;13447;57.174;-2.112;2023-03-21T18:15:18;11.20;99.90
25556;DHT22;13447;57.174;-2.112;2023-03-21T18:17:49;11.20;99.90
25556;DHT22;13447;57.174;-2.112;2023-03-21T18:20:17;11.20;99.90
25556;DHT22;13447;57.174;-2.112;2023-03-21T18:22:46;11.20;99.90
25556;DHT22;13447;57.174;-2.112;2023-03-21T18:25:14;11.20;99.90
25556;DHT22;13447;57.174;-2.112;2023-03-21T18:27:41;11.20;99.90
25556;DHT22;13447;57.174;-2.112;2023-03-21T18:30:28;11.10;99.90
25556;DHT22;13447;57.174;-2.112;2023-03-21T18:33:14;11.10;99.90
25556;DHT22;13447;57.174;-2.112;2023-03-21T18:35:42;11.00;99.90
25556;DHT22;13447;57.174;-2.112;2023-03-21T18:38:08;11.00;99.90
25556;DHT22;13447;57.174;-2.112;2023-03-21T18:40:36;10.90;99.90
25556;DHT22;13447;57.174;-2.112;2023-03-21T18:43:03;10.90;99.90
25556;DHT22;13447;57.174;-2.112;2023-03-21T18:45:50;10.90;99.90
25556;DHT22;13447;57.174;-2.112;2023-03-21T18:48:18;10.90;99.90
25556;DHT22;13447;57.174;-2.112;2023-03-21T18:50:45;10.90;99.90
25556;DHT22;13447;57.174;-2.112;2023-03-21T18:53:11;10.90;99.90
25556;DHT22;13447;57.174;-2.112;2023-03-21T18:55:38;11.00;99.90
25556;DHT22;13447;57.174;-2.112;2023-03-21T18:58:12;10.90;99.90
25556;DHT22;13447;57.174;-2.112;2023-03-21T19:00:39;10.90;99.90
25556;DHT22;13447;57.174;-2.112;2023-03-21T19:03:08;10.90;99.90
25556;DHT22;13447;57.174;-2.112;2023-03-21T19:05:58;10.70;99.90
25556;DHT22;13447;57.174;-2.112;2023-03-21T19:08:25;10.70;99.90
25556;DHT22;13447;57.174;-2.112;2023-03-21T19:10:52;10.60;99.90
25556;DHT22;13447;57.174;-2.112;2023-03-21T19:13:19;10.50;99.90
25556;DHT22;13447;57.174;-2.112;2023-03-21T19:15:46;10.40;99.90
25556;DHT22;13447;57.174;-2.112;2023-03-21T19:18:15;10.30;99.90
25556;DHT22;13447;57.174;-2.112;2023-03-21T19:21:02;10.20;99.90
25556;DHT22;13447;57.174;-2.112;2023-03-21T19:23:29;10.30;99.90
25556;DHT22;13447;57.174;-2.112;2023-03-21T19:26:16;10.20;99.90
25556;DHT22;13447;57.174;-2.112;2023-03-21T19:28:43;10.20;99.90
25556;DHT22;13447;57.174;-2.112;2023-03-21T19:31:10;10.20;99.90
25556;DHT22;13447;57.174;-2.112;2023-03-21T19:33:37;10.20;99.90
25556;DHT22;13447;57.174;-2.112;2023-03-21T19:36:04;10.30;99.90
25556;DHT22;13447;57.174;-2.112;2023-03-21T19:38:46;10.30;99.90
25556;DHT22;13447;57.174;-2.112;2023-03-21T19:41:13;10.20;99.90
25556;DHT22;13447;57.174;-2.112;2023-03-21T19:43:40;10.30;99.90
25556;DHT22;13447;57.174;-2.112;2023-03-21T19:46:19;10.20;99.90
25556;DHT22;13447;57.174;-2.112;2023-03-21T19:48:51;10.10;99.90
25556;DHT22;13447;57.174;-2.112;2023-03-21T19:51:23;10.00;99.90
25556;DHT22;13447;57.174;-2.112;2023-03-21T19:53:59;9.80;99.90
25556;DHT22;13447;57.174;-2.112;2023-03-21T19:56:28;9.90;99.90
25556;DHT22;13447;57.174;-2.112;2023-03-21T19:58:57;9.80;99.90
25556;DHT22;13447;57.174;-2.112;2023-03-21T20:01:24;9.90;99.90
25556;DHT22;13447;57.174;-2.112;2023-03-21T20:03:52;9.90;99.90
25556;DHT22;13447;57.174;-2.112;2023-03-21T20:06:19;9.90;99.90
25556;DHT22;13447;57.174;-2.112;2023-03-21T20:08:47;9.80;99.90
25556;DHT22;13447;57.174;-2.112;2023-03-21T20:11:34;9.90;99.90
25556;DHT22;13447;57.174;-2.112;2023-03-21T20:14:01;9.80;99.90
25556;DHT22;13447;57.174;-2.112;2023-03-21T20:16:29;9.80;99.90
25556;DHT22;13447;57.174;-2.112;2023-03-21T20:19:04;9.80;99.90
25556;DHT22;13447;57.174;-2.112;2023-03-21T20:21:34;9.70;99.90
25556;DHT22;13447;57.174;-2.112;2023-03-21T20:24:14;9.70;99.90
25556;DHT22;13447;57.174;-2.112;2023-03-21T20:26:42;9.80;99.90
25556;DHT22;13447;57.174;-2.112;2023-03-21T20:29:10;9.80;99.90
25556;DHT22;13447;57.174;-2.112;2023-03-21T20:31:57;9.90;99.90
25556;DHT22;13447;57.174;-2.112;2023-03-21T20:34:25;10.00;99.90
25556;DHT22;13447;57.174;-2.112;2023-03-21T20:36:52;10.00;99.90
25556;DHT22;13447;57.174;-2.112;2023-03-21T20:39:20;10.00;99.90
25556;DHT22;13447;57.174;-2.112;2023-03-21T20:41:47;10.00;99.90
25556;DHT22;13447;57.174;-2.112;2023-03-21T20:44:14;10.00;99.90
25556;DHT22;13447;57.174;-2.112;2023-03-21T20:47:03;10.00;99.90
25556;DHT22;13447;57.174;-2.112;2023-03-21T20:49:31;10.10;99.90
25556;DHT22;13447;57.174;-2.112;2023-03-21T20:51:57;10.00;99.90
25556;DHT22;13447;57.174;-2.112;2023-03-21T20:54:44;10.10;99.90
25556;DHT22;13447;57.174;-2.112;2023-03-21T20:57:12;10.20;99.90
25556;DHT22;13447;57.174;-2.112;2023-03-21T20:59:39;10.20;99.90
25556;DHT22;13447;57.174;-2.112;2023-03-21T21:02:08;10.20;99.90
25556;DHT22;13447;57.174;-2.112;2023-03-21T21:04:35;10.20;99.90
25556;DHT22;13447;57.174;-2.112;2023-03-21T21:07:22;10.20;99.90
25556;DHT22;13447;57.174;-2.112;2023-03-21T21:09:53;10.20;99.90
25556;DHT22;13447;57.174;-2.112;2023-03-21T21:12:20;10.20;99.90
25556;DHT22;13447;57.174;-2.112;2023-03-21T21:14:53;10.20;99.90
25556;DHT22;13447;57.174;-2.112;2023-03-21T21:17:20;10.10;99.90
25556;DHT22;13447;57.174;-2.112;2023-03-21T21:20:07;10.00;99.90
25556;DHT22;13447;57.174;-2.112;2023-03-21T21:22:44;9.90;99.90
25556;DHT22;13447;57.174;-2.112;2023-03-21T21:25:23;9.80;99.90
25556;DHT22;13447;57.174;-2.112;2023-03-21T21:27:50;9.70;99.90
25556;DHT22;13447;57.174;-2.112;2023-03-21T21:30:17;9.70;99.90
25556;DHT22;13447;57.174;-2.112;2023-03-21T21:32:44;9.60;99.90
25556;DHT22;13447;57.174;-2.112;2023-03-21T21:35:11;9.50;99.90
25556;DHT22;13447;57.174;-2.112;2023-03-21T21:37:38;9.50;99.90
25556;DHT22;13447;57.174;-2.112;2023-03-21T21:40:07;9.50;99.90
25556;DHT22;13447;57.174;-2.112;2023-03-21T21:42:46;9.40;99.90
25556;DHT22;13447;57.174;-2.112;2023-03-21T21:45:13;9.40;99.90
25556;DHT22;13447;57.174;-2.112;2023-03-21T21:47:41;9.40;99.90
25556;DHT22;13447;57.174;-2.112;2023-03-21T21:50:09;9.30;99.90
25556;DHT22;13447;57.174;-2.112;2023-03-21T21:52:36;9.30;99.90
25556;DHT22;13447;57.174;-2.112;2023-03-21T21:55:03;9.30;99.90
25556;DHT22;13447;57.174;-2.112;2023-03-21T21:57:31;9.40;99.90
25556;DHT22;13447;57.174;-2.112;2023-03-21T22:00:00;9.40;99.90
25556;DHT22;13447;57.174;-2.112;2023-03-21T22:02:31;9.40;99.90
25556;DHT22;13447;57.174;-2.112;2023-03-21T22:04:58;9.40;99.90
25556;DHT22;13447;57.174;-2.112;2023-03-21T22:07:25;9.40;99.90
25556;DHT22;13447;57.174;-2.112;2023-03-21T22:09:53;9.30;99.90
25556;DHT22;13447;57.174;-2.112;2023-03-21T22:12:20;9.40;99.90
25556;DHT22;13447;57.174;-2.112;2023-03-21T22:14:47;9.40;99.90
25556;DHT22;13447;57.174;-2.112;2023-03-21T22:17:14;9.40;99.90
25556;DHT22;13447;57.174;-2.112;2023-03-21T22:19:41;9.40;99.90
25556;DHT22;13447;57.174;-2.112;2023-03-21T22:22:11;9.40;99.90
25556;DHT22;13447;57.174;-2.112;2023-03-21T22:24:38;9.40;99.90
25556;DHT22;13447;57.174;-2.112;2023-03-21T22:27:05;9.50;99.90
25556;DHT22;13447;57.174;-2.112;2023-03-21T22:29:32;9.50;99.90
25556;DHT22;13447;57.174;-2.112;2023-03-21T22:31:59;9.50;99.90
25556;DHT22;13447;57.174;-2.112;2023-03-21T22:34:26;9.50;99.90
25556;DHT22;13447;57.174;-2.112;2023-03-21T22:36:53;9.50;99.90
25556;DHT22;13447;57.174;-2.112;2023-03-21T22:39:22;9.40;99.90
25556;DHT22;13447;57.174;-2.112;2023-03-21T22:41:52;9.40;99.90
25556;DHT22;13447;57.174;-2.112;2023-03-21T22:44:19;9.30;99.90
25556;DHT22;13447;57.174;-2.112;2023-03-21T22:46:46;9.30;99.90
25556;DHT22;13447;57.174;-2.112;2023-03-21T22:49:14;9.30;99.90
25556;DHT22;13447;57.174;-2.112;2023-03-21T22:51:41;9.20;99.90
25556;DHT22;13447;57.174;-2.112;2023-03-21T22:54:09;9.20;1.00
25556;DHT22;13447;57.174;-2.112;2023-03-21T22:56:36;9.20;1.00
25556;DHT22;13447;57.174;-2.112;2023-03-21T22:59:03;9.10;1.00
25556;DHT22;13447;57.174;-2.112;2023-03-21T23:01:30;9.10;1.00
25556;DHT22;13447;57.174;-2.112;2023-03-21T23:03:57;9.10;1.00
25556;DHT22;13447;57.174;-2.112;2023-03-21T23:06:24;9.10;1.00
25556;DHT22;13447;57.174;-2.112;2023-03-21T23:08:51;9.10;1.00
25556;DHT22;13447;57.174;-2.112;2023-03-21T23:11:17;9.00;1.00
25556;DHT22;13447;57.174;-2.112;2023-03-21T23:13:44;9.00;1.00
25556;DHT22;13447;57.174;-2.112;2023-03-21T23:16:30;9.00;1.00
25556;DHT22;13447;57.174;-2.112;2023-03-21T23:18:57;8.90;1.00
25556;DHT22;13447;57.174;-2.112;2023-03-21T23:21:24;8.90;1.00
25556;DHT22;13447;57.174;-2.112;2023-03-21T23:23:51;8.90;1.00
25556;DHT22;13447;57.174;-2.112;2023-03-21T23:26:20;8.90;1.00
25556;DHT22;13447;57.174;-2.112;2023-03-21T23:28:47;8.80;1.00
25556;DHT22;13447;57.174;-2.112;2023-03-21T23:31:15;8.90;1.00
25556;DHT22;13447;57.174;-2.112;2023-03-21T23:33:43;8.90;1.00
25556;DHT22;13447;57.174;-2.112;2023-03-21T23:36:10;8.80;1.00
25556;DHT22;13447;57.174;-2.112;2023-03-21T23:38:38;8.90;1.00
25556;DHT22;13447;57.174;-2.112;2023-03-21T23:41:08;8.80;1.00
25556;DHT22;13447;57.174;-2.112;2023-03-21T23:43:35;8.80;1.00
25556;DHT22;13447;57.174;-2.112;2023-03-21T23:46:02;8.80;1.00
25556;DHT22;13447;57.174;-2.112;2023-03-21T23:48:29;8.90;1.00
25556;DHT22;13447;57.174;-2.112;2023-03-21T23:50:57;8.80;1.00
25556;DHT22;13447;57.174;-2.112;2023-03-21T23:53:24;8.80;1.00
25556;DHT22;13447;57.174;-2.112;2023-03-21T23:55:51;8.80;1.00
25556;DHT22;13447;57.174;-2.112;2023-03-21T23:58:18;8.80;1.00
